sensor_id;sensor_type;location;lat;lon;timestamp;P1;durP1;ratioP1;P2;durP2;ratioP2
42134;SDS011;28312;43.460;11.810;2023-04-24T00:00:29;2.60;;;0.80;;
42134;SDS011;28312;43.460;11.810;2023-04-24T00:04:34;1.00;;;0.60;;
42134;SDS011;28312;43.460;11.810;2023-04-24T00:08:38;0.88;;;0.50;;
42134;SDS011;28312;43.460;11.810;2023-04-24T00:12:42;4.18;;;0.57;;
42134;SDS011;28312;43.460;11.810;2023-04-24T00:16:45;1.50;;;1.00;;
42134;SDS011;28312;43.460;11.810;2023-04-24T00:20:49;1.38;;;0.85;;
42134;SDS011;28312;43.460;11.810;2023-04-24T00:24:52;1.13;;;0.80;;
42134;SDS011;28312;43.460;11.810;2023-04-24T00:33:02;1.15;;;0.80;;
42134;SDS011;28312;43.460;11.810;2023-04-24T00:37:06;0.93;;;0.70;;
42134;SDS011;28312;43.460;11.810;2023-04-24T00:41:10;1.02;;;0.75;;
42134;SDS011;28312;43.460;11.810;2023-04-24T00:45:14;1.17;;;0.68;;
42134;SDS011;28312;43.460;11.810;2023-04-24T00:49:18;0.82;;;0.63;;
42134;SDS011;28312;43.460;11.810;2023-04-24T00:53:21;1.17;;;0.50;;
42134;SDS011;28312;43.460;11.810;2023-04-24T00:57:26;1.10;;;0.70;;
42134;SDS011;28312;43.460;11.810;2023-04-24T01:01:29;1.25;;;0.90;;
42134;SDS011;28312;43.460;11.810;2023-04-24T01:05:33;1.30;;;0.80;;
42134;SDS011;28312;43.460;11.810;2023-04-24T01:09:40;0.90;;;0.50;;
42134;SDS011;28312;43.460;11.810;2023-04-24T01:13:49;1.13;;;0.70;;
42134;SDS011;28312;43.460;11.810;2023-04-24T01:17:54;2.10;;;0.90;;
42134;SDS011;28312;43.460;11.810;2023-04-24T01:21:58;0.98;;;0.70;;
42134;SDS011;28312;43.460;11.810;2023-04-24T01:26:05;1.33;;;0.65;;
42134;SDS011;28312;43.460;11.810;2023-04-24T01:30:09;0.65;;;0.50;;
42134;SDS011;28312;43.460;11.810;2023-04-24T01:34:14;0.70;;;0.50;;
42134;SDS011;28312;43.460;11.810;2023-04-24T01:38:20;0.63;;;0.40;;
42134;SDS011;28312;43.460;11.810;2023-04-24T01:42:24;1.23;;;0.73;;
42134;SDS011;28312;43.460;11.810;2023-04-24T01:46:28;0.93;;;0.60;;
42134;SDS011;28312;43.460;11.810;2023-04-24T01:50:33;1.50;;;0.88;;
42134;SDS011;28312;43.460;11.810;2023-04-24T01:54:38;1.98;;;0.77;;
42134;SDS011;28312;43.460;11.810;2023-04-24T01:58:42;0.68;;;0.57;;
42134;SDS011;28312;43.460;11.810;2023-04-24T02:02:47;1.10;;;0.70;;
42134;SDS011;28312;43.460;11.810;2023-04-24T02:06:51;1.08;;;0.70;;
42134;SDS011;28312;43.460;11.810;2023-04-24T02:10:55;1.45;;;0.77;;
42134;SDS011;28312;43.460;11.810;2023-04-24T02:14:59;4.68;;;0.95;;
42134;SDS011;28312;43.460;11.810;2023-04-24T02:19:04;1.02;;;0.70;;
42134;SDS011;28312;43.460;11.810;2023-04-24T02:23:07;1.02;;;0.60;;
42134;SDS011;28312;43.460;11.810;2023-04-24T02:27:11;1.45;;;0.90;;
42134;SDS011;28312;43.460;11.810;2023-04-24T02:31:15;0.73;;;0.70;;
42134;SDS011;28312;43.460;11.810;2023-04-24T02:35:18;2.30;;;1.10;;
42134;SDS011;28312;43.460;11.810;2023-04-24T02:39:22;1.33;;;0.80;;
42134;SDS011;28312;43.460;11.810;2023-04-24T02:43:27;1.33;;;0.90;;
42134;SDS011;28312;43.460;11.810;2023-04-24T02:47:31;1.48;;;1.00;;
42134;SDS011;28312;43.460;11.810;2023-04-24T02:51:35;1.40;;;0.95;;
42134;SDS011;28312;43.460;11.810;2023-04-24T02:55:40;1.48;;;0.90;;
42134;SDS011;28312;43.460;11.810;2023-04-24T02:59:46;1.87;;;0.70;;
42134;SDS011;28312;43.460;11.810;2023-04-24T03:03:50;3.55;;;1.13;;
42134;SDS011;28312;43.460;11.810;2023-04-24T03:07:54;1.70;;;1.15;;
42134;SDS011;28312;43.460;11.810;2023-04-24T03:11:57;2.38;;;1.70;;
42134;SDS011;28312;43.460;11.810;2023-04-24T03:16:01;1.30;;;0.80;;
42134;SDS011;28312;43.460;11.810;2023-04-24T03:20:05;2.92;;;1.90;;
42134;SDS011;28312;43.460;11.810;2023-04-24T03:24:11;2.65;;;1.50;;
42134;SDS011;28312;43.460;11.810;2023-04-24T03:28:16;3.58;;;1.50;;
42134;SDS011;28312;43.460;11.810;2023-04-24T03:32:25;3.70;;;1.75;;
42134;SDS011;28312;43.460;11.810;2023-04-24T03:36:29;2.88;;;1.08;;
42134;SDS011;28312;43.460;11.810;2023-04-24T03:40:34;2.85;;;1.48;;
42134;SDS011;28312;43.460;11.810;2023-04-24T03:44:46;4.20;;;2.58;;
42134;SDS011;28312;43.460;11.810;2023-04-24T03:48:49;10.63;;;3.08;;
42134;SDS011;28312;43.460;11.810;2023-04-24T03:52:56;6.40;;;2.45;;
42134;SDS011;28312;43.460;11.810;2023-04-24T03:57:11;4.15;;;2.45;;
42134;SDS011;28312;43.460;11.810;2023-04-24T04:01:26;4.88;;;2.53;;
42134;SDS011;28312;43.460;11.810;2023-04-24T04:05:35;2.95;;;1.63;;
42134;SDS011;28312;43.460;11.810;2023-04-24T04:09:39;3.75;;;2.60;;
42134;SDS011;28312;43.460;11.810;2023-04-24T04:13:43;4.75;;;1.85;;
42134;SDS011;28312;43.460;11.810;2023-04-24T04:17:47;4.78;;;2.95;;
42134;SDS011;28312;43.460;11.810;2023-04-24T04:21:51;2.15;;;1.40;;
42134;SDS011;28312;43.460;11.810;2023-04-24T04:26:06;1.85;;;1.13;;
42134;SDS011;28312;43.460;11.810;2023-04-24T04:30:33;2.55;;;1.20;;
42134;SDS011;28312;43.460;11.810;2023-04-24T04:34:38;2.65;;;1.55;;
42134;SDS011;28312;43.460;11.810;2023-04-24T04:38:45;3.83;;;1.55;;
42134;SDS011;28312;43.460;11.810;2023-04-24T04:43:00;2.30;;;1.45;;
42134;SDS011;28312;43.460;11.810;2023-04-24T04:47:10;7.50;;;2.28;;
42134;SDS011;28312;43.460;11.810;2023-04-24T04:51:15;5.20;;;2.17;;
42134;SDS011;28312;43.460;11.810;2023-04-24T04:55:19;4.65;;;2.58;;
42134;SDS011;28312;43.460;11.810;2023-04-24T04:59:41;7.68;;;2.22;;
42134;SDS011;28312;43.460;11.810;2023-04-24T05:03:52;4.10;;;2.20;;
42134;SDS011;28312;43.460;11.810;2023-04-24T05:07:56;4.97;;;2.40;;
42134;SDS011;28312;43.460;11.810;2023-04-24T05:12:00;2.70;;;1.52;;
42134;SDS011;28312;43.460;11.810;2023-04-24T05:16:11;3.38;;;1.50;;
42134;SDS011;28312;43.460;11.810;2023-04-24T05:20:17;3.13;;;1.95;;
42134;SDS011;28312;43.460;11.810;2023-04-24T05:24:21;2.58;;;1.77;;
42134;SDS011;28312;43.460;11.810;2023-04-24T05:28:43;3.83;;;2.08;;
42134;SDS011;28312;43.460;11.810;2023-04-24T05:32:50;2.20;;;1.50;;
42134;SDS011;28312;43.460;11.810;2023-04-24T05:36:55;5.20;;;1.83;;
42134;SDS011;28312;43.460;11.810;2023-04-24T05:40:58;2.97;;;2.03;;
42134;SDS011;28312;43.460;11.810;2023-04-24T05:45:02;6.50;;;5.88;;
42134;SDS011;28312;43.460;11.810;2023-04-24T05:49:07;2.10;;;1.40;;
42134;SDS011;28312;43.460;11.810;2023-04-24T05:53:11;3.33;;;1.95;;
42134;SDS011;28312;43.460;11.810;2023-04-24T05:57:14;2.80;;;1.20;;
42134;SDS011;28312;43.460;11.810;2023-04-24T06:01:36;2.80;;;1.40;;
42134;SDS011;28312;43.460;11.810;2023-04-24T06:05:46;1.63;;;1.15;;
42134;SDS011;28312;43.460;11.810;2023-04-24T06:09:52;7.57;;;2.30;;
42134;SDS011;28312;43.460;11.810;2023-04-24T06:13:56;3.33;;;1.63;;
42134;SDS011;28312;43.460;11.810;2023-04-24T06:18:33;3.72;;;1.50;;
42134;SDS011;28312;43.460;11.810;2023-04-24T06:22:37;3.97;;;1.90;;
42134;SDS011;28312;43.460;11.810;2023-04-24T06:26:42;7.63;;;1.85;;
42134;SDS011;28312;43.460;11.810;2023-04-24T06:30:46;2.40;;;1.58;;
42134;SDS011;28312;43.460;11.810;2023-04-24T06:34:51;3.67;;;2.33;;
42134;SDS011;28312;43.460;11.810;2023-04-24T06:38:55;3.70;;;2.23;;
42134;SDS011;28312;43.460;11.810;2023-04-24T06:43:00;3.40;;;1.58;;
42134;SDS011;28312;43.460;11.810;2023-04-24T06:47:05;3.95;;;1.48;;
42134;SDS011;28312;43.460;11.810;2023-04-24T06:51:12;3.90;;;1.60;;
42134;SDS011;28312;43.460;11.810;2023-04-24T06:55:16;2.58;;;1.30;;
42134;SDS011;28312;43.460;11.810;2023-04-24T06:59:19;2.38;;;0.90;;
42134;SDS011;28312;43.460;11.810;2023-04-24T07:03:23;2.03;;;1.13;;
42134;SDS011;28312;43.460;11.810;2023-04-24T07:07:27;3.15;;;1.30;;
42134;SDS011;28312;43.460;11.810;2023-04-24T07:11:30;2.53;;;1.30;;
42134;SDS011;28312;43.460;11.810;2023-04-24T07:15:34;2.10;;;1.05;;
42134;SDS011;28312;43.460;11.810;2023-04-24T07:19:38;2.40;;;1.35;;
42134;SDS011;28312;43.460;11.810;2023-04-24T07:23:42;2.67;;;1.00;;
42134;SDS011;28312;43.460;11.810;2023-04-24T07:27:45;2.10;;;1.02;;
42134;SDS011;28312;43.460;11.810;2023-04-24T07:31:49;1.42;;;0.90;;
42134;SDS011;28312;43.460;11.810;2023-04-24T07:35:53;1.05;;;0.70;;
42134;SDS011;28312;43.460;11.810;2023-04-24T07:39:57;1.15;;;0.80;;
42134;SDS011;28312;43.460;11.810;2023-04-24T07:44:00;1.60;;;0.75;;
42134;SDS011;28312;43.460;11.810;2023-04-24T07:48:04;3.67;;;0.80;;
42134;SDS011;28312;43.460;11.810;2023-04-24T07:52:08;1.80;;;1.05;;
42134;SDS011;28312;43.460;11.810;2023-04-24T07:56:12;2.80;;;0.70;;
42134;SDS011;28312;43.460;11.810;2023-04-24T08:00:15;3.78;;;1.33;;
42134;SDS011;28312;43.460;11.810;2023-04-24T08:04:19;2.63;;;0.63;;
42134;SDS011;28312;43.460;11.810;2023-04-24T08:08:23;2.25;;;0.55;;
42134;SDS011;28312;43.460;11.810;2023-04-24T08:12:30;1.08;;;0.65;;
42134;SDS011;28312;43.460;11.810;2023-04-24T08:16:34;0.93;;;0.50;;
42134;SDS011;28312;43.460;11.810;2023-04-24T08:20:38;1.15;;;0.60;;
42134;SDS011;28312;43.460;11.810;2023-04-24T08:24:42;0.85;;;0.43;;
42134;SDS011;28312;43.460;11.810;2023-04-24T08:28:46;0.95;;;0.52;;
42134;SDS011;28312;43.460;11.810;2023-04-24T08:32:50;1.27;;;0.70;;
42134;SDS011;28312;43.460;11.810;2023-04-24T08:36:54;1.63;;;0.70;;
42134;SDS011;28312;43.460;11.810;2023-04-24T08:40:58;2.40;;;0.90;;
42134;SDS011;28312;43.460;11.810;2023-04-24T08:45:03;1.65;;;0.75;;
42134;SDS011;28312;43.460;11.810;2023-04-24T08:49:06;1.30;;;0.82;;
42134;SDS011;28312;43.460;11.810;2023-04-24T08:53:10;1.40;;;0.65;;
42134;SDS011;28312;43.460;11.810;2023-04-24T08:57:14;3.35;;;0.88;;
42134;SDS011;28312;43.460;11.810;2023-04-24T09:01:19;1.33;;;0.85;;
42134;SDS011;28312;43.460;11.810;2023-04-24T09:05:23;1.55;;;0.45;;
42134;SDS011;28312;43.460;11.810;2023-04-24T09:09:32;1.13;;;0.73;;
42134;SDS011;28312;43.460;11.810;2023-04-24T09:13:36;0.88;;;0.50;;
42134;SDS011;28312;43.460;11.810;2023-04-24T09:17:40;0.88;;;0.57;;
42134;SDS011;28312;43.460;11.810;2023-04-24T09:21:45;0.80;;;0.40;;
42134;SDS011;28312;43.460;11.810;2023-04-24T09:25:49;3.33;;;1.50;;
42134;SDS011;28312;43.460;11.810;2023-04-24T09:29:58;23.42;;;12.45;;
42134;SDS011;28312;43.460;11.810;2023-04-24T09:34:05;20.02;;;10.40;;
42134;SDS011;28312;43.460;11.810;2023-04-24T09:38:09;8.90;;;4.93;;
42134;SDS011;28312;43.460;11.810;2023-04-24T09:42:13;4.03;;;2.53;;
42134;SDS011;28312;43.460;11.810;2023-04-24T09:46:18;2.55;;;1.60;;
42134;SDS011;28312;43.460;11.810;2023-04-24T09:50:22;2.55;;;1.08;;
42134;SDS011;28312;43.460;11.810;2023-04-24T09:54:26;1.90;;;0.90;;
42134;SDS011;28312;43.460;11.810;2023-04-24T09:58:29;2.83;;;0.80;;
42134;SDS011;28312;43.460;11.810;2023-04-24T10:02:33;2.85;;;1.10;;
42134;SDS011;28312;43.460;11.810;2023-04-24T10:06:37;1.83;;;0.93;;
42134;SDS011;28312;43.460;11.810;2023-04-24T10:10:41;3.20;;;1.10;;
42134;SDS011;28312;43.460;11.810;2023-04-24T10:18:56;1.23;;;0.57;;
42134;SDS011;28312;43.460;11.810;2023-04-24T10:23:03;2.17;;;0.77;;
42134;SDS011;28312;43.460;11.810;2023-04-24T10:27:06;1.98;;;0.80;;
42134;SDS011;28312;43.460;11.810;2023-04-24T10:31:13;1.55;;;0.82;;
42134;SDS011;28312;43.460;11.810;2023-04-24T10:35:17;1.77;;;0.80;;
42134;SDS011;28312;43.460;11.810;2023-04-24T10:39:24;2.13;;;0.75;;
42134;SDS011;28312;43.460;11.810;2023-04-24T10:43:30;1.25;;;0.47;;
42134;SDS011;28312;43.460;11.810;2023-04-24T10:47:39;1.13;;;0.50;;
42134;SDS011;28312;43.460;11.810;2023-04-24T10:51:48;1.20;;;0.70;;
42134;SDS011;28312;43.460;11.810;2023-04-24T10:55:57;1.92;;;0.82;;
42134;SDS011;28312;43.460;11.810;2023-04-24T11:00:29;1.45;;;0.57;;
42134;SDS011;28312;43.460;11.810;2023-04-24T11:04:32;2.88;;;1.02;;
42134;SDS011;28312;43.460;11.810;2023-04-24T11:08:38;1.27;;;0.43;;
42134;SDS011;28312;43.460;11.810;2023-04-24T11:12:47;1.83;;;0.68;;
42134;SDS011;28312;43.460;11.810;2023-04-24T11:21:07;2.80;;;0.88;;
42134;SDS011;28312;43.460;11.810;2023-04-24T11:25:14;0.93;;;0.50;;
42134;SDS011;28312;43.460;11.810;2023-04-24T11:29:19;1.23;;;0.40;;
42134;SDS011;28312;43.460;11.810;2023-04-24T11:33:25;1.25;;;0.40;;
42134;SDS011;28312;43.460;11.810;2023-04-24T11:37:48;1.25;;;0.47;;
42134;SDS011;28312;43.460;11.810;2023-04-24T11:42:01;1.93;;;0.70;;
42134;SDS011;28312;43.460;11.810;2023-04-24T11:46:07;2.85;;;0.60;;
42134;SDS011;28312;43.460;11.810;2023-04-24T11:50:12;1.60;;;0.70;;
42134;SDS011;28312;43.460;11.810;2023-04-24T11:54:21;3.47;;;0.80;;
42134;SDS011;28312;43.460;11.810;2023-04-24T11:58:25;2.88;;;0.95;;
42134;SDS011;28312;43.460;11.810;2023-04-24T12:02:30;2.25;;;0.85;;
42134;SDS011;28312;43.460;11.810;2023-04-24T12:06:34;2.45;;;0.63;;
42134;SDS011;28312;43.460;11.810;2023-04-24T12:10:38;1.92;;;0.75;;
42134;SDS011;28312;43.460;11.810;2023-04-24T12:14:48;3.38;;;0.73;;
42134;SDS011;28312;43.460;11.810;2023-04-24T12:18:53;0.80;;;0.52;;
42134;SDS011;28312;43.460;11.810;2023-04-24T12:22:57;2.10;;;0.80;;
42134;SDS011;28312;43.460;11.810;2023-04-24T12:27:02;1.47;;;0.80;;
42134;SDS011;28312;43.460;11.810;2023-04-24T12:31:06;0.75;;;0.50;;
42134;SDS011;28312;43.460;11.810;2023-04-24T12:35:10;3.47;;;0.80;;
42134;SDS011;28312;43.460;11.810;2023-04-24T12:39:17;1.23;;;0.50;;
42134;SDS011;28312;43.460;11.810;2023-04-24T12:43:22;4.13;;;0.85;;
42134;SDS011;28312;43.460;11.810;2023-04-24T12:47:26;0.95;;;0.60;;
42134;SDS011;28312;43.460;11.810;2023-04-24T12:51:31;2.33;;;1.10;;
42134;SDS011;28312;43.460;11.810;2023-04-24T12:55:34;1.35;;;0.70;;
42134;SDS011;28312;43.460;11.810;2023-04-24T12:59:40;2.92;;;0.82;;
42134;SDS011;28312;43.460;11.810;2023-04-24T13:03:44;1.88;;;0.77;;
42134;SDS011;28312;43.460;11.810;2023-04-24T13:07:48;1.30;;;0.60;;
42134;SDS011;28312;43.460;11.810;2023-04-24T13:11:52;5.75;;;1.08;;
42134;SDS011;28312;43.460;11.810;2023-04-24T13:15:55;2.78;;;0.70;;
42134;SDS011;28312;43.460;11.810;2023-04-24T13:19:59;1.83;;;0.60;;
42134;SDS011;28312;43.460;11.810;2023-04-24T13:24:04;1.88;;;0.80;;
42134;SDS011;28312;43.460;11.810;2023-04-24T13:28:10;2.78;;;0.80;;
42134;SDS011;28312;43.460;11.810;2023-04-24T13:32:14;1.83;;;1.00;;
42134;SDS011;28312;43.460;11.810;2023-04-24T13:36:17;2.40;;;0.75;;
42134;SDS011;28312;43.460;11.810;2023-04-24T13:40:21;1.75;;;0.82;;
42134;SDS011;28312;43.460;11.810;2023-04-24T13:44:25;1.95;;;0.75;;
42134;SDS011;28312;43.460;11.810;2023-04-24T13:48:28;2.33;;;0.88;;
42134;SDS011;28312;43.460;11.810;2023-04-24T13:52:32;1.55;;;0.63;;
42134;SDS011;28312;43.460;11.810;2023-04-24T13:56:36;1.73;;;0.70;;
42134;SDS011;28312;43.460;11.810;2023-04-24T14:00:40;1.55;;;0.63;;
42134;SDS011;28312;43.460;11.810;2023-04-24T14:04:43;2.15;;;0.80;;
42134;SDS011;28312;43.460;11.810;2023-04-24T14:08:47;1.15;;;0.47;;
42134;SDS011;28312;43.460;11.810;2023-04-24T14:12:52;1.90;;;0.60;;
42134;SDS011;28312;43.460;11.810;2023-04-24T14:16:56;0.88;;;0.50;;
42134;SDS011;28312;43.460;11.810;2023-04-24T14:21:00;1.33;;;0.47;;
42134;SDS011;28312;43.460;11.810;2023-04-24T14:25:04;1.35;;;0.60;;
42134;SDS011;28312;43.460;11.810;2023-04-24T14:29:09;0.63;;;0.35;;
42134;SDS011;28312;43.460;11.810;2023-04-24T14:33:16;1.25;;;0.70;;
42134;SDS011;28312;43.460;11.810;2023-04-24T14:37:20;3.35;;;1.02;;
42134;SDS011;28312;43.460;11.810;2023-04-24T14:41:24;1.85;;;0.80;;
42134;SDS011;28312;43.460;11.810;2023-04-24T14:45:27;2.20;;;0.82;;
42134;SDS011;28312;43.460;11.810;2023-04-24T14:49:31;7.20;;;1.02;;
42134;SDS011;28312;43.460;11.810;2023-04-24T14:53:35;2.42;;;0.60;;
42134;SDS011;28312;43.460;11.810;2023-04-24T14:57:39;4.10;;;0.65;;
42134;SDS011;28312;43.460;11.810;2023-04-24T15:01:42;2.33;;;0.82;;
42134;SDS011;28312;43.460;11.810;2023-04-24T15:05:46;2.60;;;0.80;;
42134;SDS011;28312;43.460;11.810;2023-04-24T15:09:50;1.27;;;0.65;;
42134;SDS011;28312;43.460;11.810;2023-04-24T15:13:53;0.93;;;0.52;;
42134;SDS011;28312;43.460;11.810;2023-04-24T15:17:57;1.98;;;0.52;;
42134;SDS011;28312;43.460;11.810;2023-04-24T15:22:01;1.38;;;0.50;;
42134;SDS011;28312;43.460;11.810;2023-04-24T15:26:04;1.83;;;0.75;;
42134;SDS011;28312;43.460;11.810;2023-04-24T15:30:08;3.08;;;0.50;;
42134;SDS011;28312;43.460;11.810;2023-04-24T15:34:13;1.48;;;0.65;;
42134;SDS011;28312;43.460;11.810;2023-04-24T15:38:16;1.52;;;0.52;;
42134;SDS011;28312;43.460;11.810;2023-04-24T15:42:20;1.23;;;0.63;;
42134;SDS011;28312;43.460;11.810;2023-04-24T15:46:23;3.20;;;0.57;;
42134;SDS011;28312;43.460;11.810;2023-04-24T15:50:29;0.82;;;0.60;;
42134;SDS011;28312;43.460;11.810;2023-04-24T15:54:32;2.58;;;0.98;;
42134;SDS011;28312;43.460;11.810;2023-04-24T15:58:36;1.25;;;0.52;;
42134;SDS011;28312;43.460;11.810;2023-04-24T16:02:40;1.13;;;0.57;;
42134;SDS011;28312;43.460;11.810;2023-04-24T16:06:46;2.05;;;0.90;;
42134;SDS011;28312;43.460;11.810;2023-04-24T16:10:49;2.15;;;0.60;;
42134;SDS011;28312;43.460;11.810;2023-04-24T16:14:54;0.68;;;0.43;;
42134;SDS011;28312;43.460;11.810;2023-04-24T16:18:57;1.15;;;0.60;;
42134;SDS011;28312;43.460;11.810;2023-04-24T16:23:01;0.80;;;0.47;;
42134;SDS011;28312;43.460;11.810;2023-04-24T16:27:06;0.52;;;0.30;;
42134;SDS011;28312;43.460;11.810;2023-04-24T16:31:09;1.65;;;0.82;;
42134;SDS011;28312;43.460;11.810;2023-04-24T16:35:16;1.55;;;0.68;;
42134;SDS011;28312;43.460;11.810;2023-04-24T16:39:19;3.63;;;0.95;;
42134;SDS011;28312;43.460;11.810;2023-04-24T16:43:24;1.83;;;0.68;;
42134;SDS011;28312;43.460;11.810;2023-04-24T16:47:28;1.55;;;0.80;;
42134;SDS011;28312;43.460;11.810;2023-04-24T16:51:33;1.65;;;0.80;;
42134;SDS011;28312;43.460;11.810;2023-04-24T16:55:37;2.85;;;0.68;;
42134;SDS011;28312;43.460;11.810;2023-04-24T16:59:41;1.85;;;0.60;;
42134;SDS011;28312;43.460;11.810;2023-04-24T17:03:44;1.20;;;0.70;;
42134;SDS011;28312;43.460;11.810;2023-04-24T17:07:49;2.00;;;0.70;;
42134;SDS011;28312;43.460;11.810;2023-04-24T17:11:53;1.08;;;0.47;;
42134;SDS011;28312;43.460;11.810;2023-04-24T17:15:56;1.15;;;0.45;;
42134;SDS011;28312;43.460;11.810;2023-04-24T17:20:00;1.35;;;0.60;;
42134;SDS011;28312;43.460;11.810;2023-04-24T17:24:23;0.30;;;0.10;;
42134;SDS011;28312;43.460;11.810;2023-04-24T17:28:28;0.93;;;0.50;;
42134;SDS011;28312;43.460;11.810;2023-04-24T17:32:32;0.40;;;0.35;;
42134;SDS011;28312;43.460;11.810;2023-04-24T17:36:36;1.17;;;0.50;;
42134;SDS011;28312;43.460;11.810;2023-04-24T17:40:40;2.60;;;0.57;;
42134;SDS011;28312;43.460;11.810;2023-04-24T17:44:45;2.00;;;0.65;;
42134;SDS011;28312;43.460;11.810;2023-04-24T17:48:49;0.93;;;0.55;;
42134;SDS011;28312;43.460;11.810;2023-04-24T17:52:54;0.75;;;0.40;;
42134;SDS011;28312;43.460;11.810;2023-04-24T17:56:57;0.57;;;0.40;;
42134;SDS011;28312;43.460;11.810;2023-04-24T18:01:01;0.28;;;0.20;;
42134;SDS011;28312;43.460;11.810;2023-04-24T18:05:05;0.57;;;0.40;;
42134;SDS011;28312;43.460;11.810;2023-04-24T18:09:08;3.17;;;1.02;;
42134;SDS011;28312;43.460;11.810;2023-04-24T18:13:12;1.65;;;0.90;;
42134;SDS011;28312;43.460;11.810;2023-04-24T18:17:16;1.33;;;0.70;;
42134;SDS011;28312;43.460;11.810;2023-04-24T18:21:20;3.75;;;1.10;;
42134;SDS011;28312;43.460;11.810;2023-04-24T18:25:25;1.20;;;0.60;;
42134;SDS011;28312;43.460;11.810;2023-04-24T18:29:29;4.53;;;1.10;;
42134;SDS011;28312;43.460;11.810;2023-04-24T18:33:32;4.38;;;1.38;;
42134;SDS011;28312;43.460;11.810;2023-04-24T18:37:36;1.98;;;1.30;;
42134;SDS011;28312;43.460;11.810;2023-04-24T18:41:39;2.53;;;1.33;;
42134;SDS011;28312;43.460;11.810;2023-04-24T18:45:43;2.85;;;1.10;;
42134;SDS011;28312;43.460;11.810;2023-04-24T18:49:46;1.45;;;0.77;;
42134;SDS011;28312;43.460;11.810;2023-04-24T18:53:50;2.55;;;0.95;;
42134;SDS011;28312;43.460;11.810;2023-04-24T18:57:53;1.98;;;1.10;;
42134;SDS011;28312;43.460;11.810;2023-04-24T19:01:57;1.83;;;0.98;;
42134;SDS011;28312;43.460;11.810;2023-04-24T19:06:01;5.18;;;1.75;;
42134;SDS011;28312;43.460;11.810;2023-04-24T19:10:05;2.25;;;1.25;;
42134;SDS011;28312;43.460;11.810;2023-04-24T19:14:09;3.63;;;1.40;;
42134;SDS011;28312;43.460;11.810;2023-04-24T19:18:13;1.25;;;0.75;;
42134;SDS011;28312;43.460;11.810;2023-04-24T19:22:18;2.42;;;0.88;;
42134;SDS011;28312;43.460;11.810;2023-04-24T19:26:22;6.25;;;1.42;;
42134;SDS011;28312;43.460;11.810;2023-04-24T19:30:27;1.50;;;0.88;;
42134;SDS011;28312;43.460;11.810;2023-04-24T19:34:31;2.10;;;0.90;;
42134;SDS011;28312;43.460;11.810;2023-04-24T19:38:36;1.90;;;1.00;;
42134;SDS011;28312;43.460;11.810;2023-04-24T19:42:39;1.02;;;0.50;;
42134;SDS011;28312;43.460;11.810;2023-04-24T19:46:46;1.88;;;0.60;;
42134;SDS011;28312;43.460;11.810;2023-04-24T19:50:53;1.23;;;0.65;;
42134;SDS011;28312;43.460;11.810;2023-04-24T19:54:57;4.53;;;1.25;;
42134;SDS011;28312;43.460;11.810;2023-04-24T19:59:01;0.80;;;0.60;;
42134;SDS011;28312;43.460;11.810;2023-04-24T20:03:05;3.10;;;1.13;;
42134;SDS011;28312;43.460;11.810;2023-04-24T20:07:09;1.65;;;0.90;;
42134;SDS011;28312;43.460;11.810;2023-04-24T20:11:15;0.73;;;0.63;;
42134;SDS011;28312;43.460;11.810;2023-04-24T20:15:18;1.80;;;0.80;;
42134;SDS011;28312;43.460;11.810;2023-04-24T20:19:22;2.67;;;1.13;;
42134;SDS011;28312;43.460;11.810;2023-04-24T20:23:26;1.92;;;0.73;;
42134;SDS011;28312;43.460;11.810;2023-04-24T20:27:30;1.63;;;0.80;;
42134;SDS011;28312;43.460;11.810;2023-04-24T20:31:34;3.00;;;0.93;;
42134;SDS011;28312;43.460;11.810;2023-04-24T20:35:37;3.28;;;0.77;;
42134;SDS011;28312;43.460;11.810;2023-04-24T20:39:43;3.05;;;0.73;;
42134;SDS011;28312;43.460;11.810;2023-04-24T20:43:48;3.63;;;1.15;;
42134;SDS011;28312;43.460;11.810;2023-04-24T20:47:51;0.93;;;0.43;;
42134;SDS011;28312;43.460;11.810;2023-04-24T20:51:55;4.65;;;0.93;;
42134;SDS011;28312;43.460;11.810;2023-04-24T20:56:00;0.90;;;0.52;;
42134;SDS011;28312;43.460;11.810;2023-04-24T21:00:04;2.45;;;1.15;;
42134;SDS011;28312;43.460;11.810;2023-04-24T21:04:10;2.05;;;0.82;;
42134;SDS011;28312;43.460;11.810;2023-04-24T21:08:14;1.90;;;0.63;;
42134;SDS011;28312;43.460;11.810;2023-04-24T21:12:18;0.57;;;0.50;;
42134;SDS011;28312;43.460;11.810;2023-04-24T21:16:22;4.53;;;1.15;;
42134;SDS011;28312;43.460;11.810;2023-04-24T21:20:25;2.20;;;0.82;;
42134;SDS011;28312;43.460;11.810;2023-04-24T21:24:29;1.75;;;1.08;;
42134;SDS011;28312;43.460;11.810;2023-04-24T21:28:33;4.82;;;1.80;;
42134;SDS011;28312;43.460;11.810;2023-04-24T21:32:36;2.33;;;1.05;;
42134;SDS011;28312;43.460;11.810;2023-04-24T21:36:42;2.63;;;1.20;;
42134;SDS011;28312;43.460;11.810;2023-04-24T21:40:45;2.90;;;0.95;;
42134;SDS011;28312;43.460;11.810;2023-04-24T21:44:50;2.17;;;0.98;;
42134;SDS011;28312;43.460;11.810;2023-04-24T21:48:53;2.53;;;1.00;;
42134;SDS011;28312;43.460;11.810;2023-04-24T21:52:57;1.98;;;0.82;;
42134;SDS011;28312;43.460;11.810;2023-04-24T21:57:00;2.15;;;0.60;;
42134;SDS011;28312;43.460;11.810;2023-04-24T22:01:04;2.45;;;0.88;;
42134;SDS011;28312;43.460;11.810;2023-04-24T22:05:08;0.65;;;0.40;;
42134;SDS011;28312;43.460;11.810;2023-04-24T22:09:17;4.13;;;2.00;;
42134;SDS011;28312;43.460;11.810;2023-04-24T22:13:21;1.00;;;0.68;;
42134;SDS011;28312;43.460;11.810;2023-04-24T22:17:25;4.45;;;1.27;;
42134;SDS011;28312;43.460;11.810;2023-04-24T22:21:28;2.88;;;0.93;;
42134;SDS011;28312;43.460;11.810;2023-04-24T22:25:33;2.80;;;1.00;;
42134;SDS011;28312;43.460;11.810;2023-04-24T22:29:36;1.17;;;0.68;;
42134;SDS011;28312;43.460;11.810;2023-04-24T22:33:42;1.10;;;0.77;;
42134;SDS011;28312;43.460;11.810;2023-04-24T22:37:52;4.40;;;1.00;;
42134;SDS011;28312;43.460;11.810;2023-04-24T22:41:57;1.20;;;0.50;;
42134;SDS011;28312;43.460;11.810;2023-04-24T22:46:01;1.55;;;0.95;;
42134;SDS011;28312;43.460;11.810;2023-04-24T22:50:05;3.45;;;0.90;;
42134;SDS011;28312;43.460;11.810;2023-04-24T22:54:10;3.22;;;0.80;;
42134;SDS011;28312;43.460;11.810;2023-04-24T22:58:13;0.73;;;0.57;;
42134;SDS011;28312;43.460;11.810;2023-04-24T23:02:17;2.95;;;1.02;;
42134;SDS011;28312;43.460;11.810;2023-04-24T23:06:21;1.33;;;0.70;;
42134;SDS011;28312;43.460;11.810;2023-04-24T23:10:24;2.63;;;0.90;;
42134;SDS011;28312;43.460;11.810;2023-04-24T23:14:28;2.78;;;0.80;;
42134;SDS011;28312;43.460;11.810;2023-04-24T23:18:31;12.32;;;1.50;;
42134;SDS011;28312;43.460;11.810;2023-04-24T23:22:35;3.17;;;0.85;;
42134;SDS011;28312;43.460;11.810;2023-04-24T23:26:39;1.40;;;0.65;;
42134;SDS011;28312;43.460;11.810;2023-04-24T23:30:42;1.38;;;0.95;;
42134;SDS011;28312;43.460;11.810;2023-04-24T23:34:46;1.67;;;0.90;;
42134;SDS011;28312;43.460;11.810;2023-04-24T23:38:51;3.30;;;1.17;;
42134;SDS011;28312;43.460;11.810;2023-04-24T23:42:54;1.85;;;0.80;;
42134;SDS011;28312;43.460;11.810;2023-04-24T23:47:08;2.80;;;0.80;;
42134;SDS011;28312;43.460;11.810;2023-04-24T23:51:12;1.75;;;0.60;;
42134;SDS011;28312;43.460;11.810;2023-04-24T23:55:16;1.45;;;0.52;;
42134;SDS011;28312;43.460;11.810;2023-04-24T23:59:20;2.30;;;0.73;;
